sensor_id;sensor_type;location;lat;lon;timestamp;pressure;altitude;pressure_sealevel;temperature;humidity
27429;BME280;14881;48.092;11.574;2023-07-13T00:01:30;95481.78;;;17.37;100.00
27429;BME280;14881;48.092;11.574;2023-07-13T00:03:57;95481.78;;;17.37;100.00
27429;BME280;14881;48.092;11.574;2023-07-13T00:06:24;95478.69;;;17.38;100.00
27429;BME280;14881;48.092;11.574;2023-07-13T00:08:50;95466.75;;;17.34;100.00
27429;BME280;14881;48.092;11.574;2023-07-13T00:11:17;95473.22;;;17.38;100.00
27429;BME280;14881;48.092;11.574;2023-07-13T00:13:44;95466.25;;;17.41;100.00
27429;BME280;14881;48.092;11.574;2023-07-13T00:16:11;95464.31;;;17.42;100.00
27429;BME280;14881;48.092;11.574;2023-07-13T00:18:40;95465.44;;;17.40;100.00
27429;BME280;14881;48.092;11.574;2023-07-13T00:21:06;95470.59;;;17.42;100.00
27429;BME280;14881;48.092;11.574;2023-07-13T00:23:34;95480.94;;;17.45;100.00
27429;BME280;14881;48.092;11.574;2023-07-13T00:26:02;95480.13;;;17.45;100.00
27429;BME280;14881;48.092;11.574;2023-07-13T00:28:28;95478.50;;;17.44;100.00
27429;BME280;14881;48.092;11.574;2023-07-13T00:30:55;95472.22;;;17.43;100.00
27429;BME280;14881;48.092;11.574;2023-07-13T00:33:21;95487.91;;;17.43;100.00
27429;BME280;14881;48.092;11.574;2023-07-13T00:35:49;95490.50;;;17.39;100.00
27429;BME280;14881;48.092;11.574;2023-07-13T00:38:16;95486.63;;;17.40;100.00
27429;BME280;14881;48.092;11.574;2023-07-13T00:40:43;95481.44;;;17.38;100.00
27429;BME280;14881;48.092;11.574;2023-07-13T00:43:12;95487.75;;;17.39;100.00
27429;BME280;14881;48.092;11.574;2023-07-13T00:46:13;95490.16;;;17.40;100.00
27429;BME280;14881;48.092;11.574;2023-07-13T00:48:40;95485.47;;;17.41;100.00
27429;BME280;14881;48.092;11.574;2023-07-13T00:51:10;95484.66;;;17.40;100.00
27429;BME280;14881;48.092;11.574;2023-07-13T00:53:37;95489.34;;;17.40;100.00
27429;BME280;14881;48.092;11.574;2023-07-13T00:56:04;95487.09;;;17.42;100.00
27429;BME280;14881;48.092;11.574;2023-07-13T00:58:31;95483.38;;;17.38;100.00
27429;BME280;14881;48.092;11.574;2023-07-13T01:00:57;95483.88;;;17.40;100.00
27429;BME280;14881;48.092;11.574;2023-07-13T01:03:24;95481.59;;;17.42;100.00
27429;BME280;14881;48.092;11.574;2023-07-13T01:05:53;95463.50;;;17.41;100.00
27429;BME280;14881;48.092;11.574;2023-07-13T01:08:20;95468.66;;;17.43;100.00
27429;BME280;14881;48.092;11.574;2023-07-13T01:10:53;95458.47;;;17.43;100.00
27429;BME280;14881;48.092;11.574;2023-07-13T01:13:21;95456.22;;;17.45;100.00
27429;BME280;14881;48.092;11.574;2023-07-13T01:15:50;95449.91;;;17.45;100.00
27429;BME280;14881;48.092;11.574;2023-07-13T01:18:19;95445.88;;;17.42;100.00
27429;BME280;14881;48.092;11.574;2023-07-13T01:20:51;95448.97;;;17.40;100.00
27429;BME280;14881;48.092;11.574;2023-07-13T01:23:17;95437.50;;;17.38;100.00
27429;BME280;14881;48.092;11.574;2023-07-13T01:25:44;95429.13;;;17.35;100.00
27429;BME280;14881;48.092;11.574;2023-07-13T01:28:11;95427.41;;;17.30;100.00
27429;BME280;14881;48.092;11.574;2023-07-13T01:30:39;95418.34;;;17.30;100.00
27429;BME280;14881;48.092;11.574;2023-07-13T01:33:06;95418.22;;;17.26;100.00
27429;BME280;14881;48.092;11.574;2023-07-13T01:35:33;95426.13;;;17.28;100.00
27429;BME280;14881;48.092;11.574;2023-07-13T01:38:00;95425.78;;;17.29;100.00
27429;BME280;14881;48.092;11.574;2023-07-13T01:40:27;95427.25;;;17.27;100.00
27429;BME280;14881;48.092;11.574;2023-07-13T01:42:54;95422.91;;;17.26;100.00
27429;BME280;14881;48.092;11.574;2023-07-13T01:45:20;95422.56;;;17.27;100.00
27429;BME280;14881;48.092;11.574;2023-07-13T01:47:46;95426.44;;;17.26;100.00
27429;BME280;14881;48.092;11.574;2023-07-13T01:50:13;95429.34;;;17.30;100.00
27429;BME280;14881;48.092;11.574;2023-07-13T01:52:39;95432.75;;;17.27;100.00
27429;BME280;14881;48.092;11.574;2023-07-13T01:55:07;95437.44;;;17.26;100.00
27429;BME280;14881;48.092;11.574;2023-07-13T01:57:34;95446.53;;;17.18;100.00
27429;BME280;14881;48.092;11.574;2023-07-13T02:00:03;95454.44;;;17.20;100.00
27429;BME280;14881;48.092;11.574;2023-07-13T02:02:30;95453.75;;;17.23;100.00
27429;BME280;14881;48.092;11.574;2023-07-13T02:04:57;95461.53;;;17.21;100.00
27429;BME280;14881;48.092;11.574;2023-07-13T02:07:23;95465.88;;;17.22;100.00
27429;BME280;14881;48.092;11.574;2023-07-13T02:09:50;95473.84;;;17.15;100.00
27429;BME280;14881;48.092;11.574;2023-07-13T02:12:17;95475.66;;;17.11;100.00
27429;BME280;14881;48.092;11.574;2023-07-13T02:14:43;95490.53;;;17.10;100.00
27429;BME280;14881;48.092;11.574;2023-07-13T02:17:10;95476.50;;;17.02;100.00
27429;BME280;14881;48.092;11.574;2023-07-13T02:19:36;95481.16;;;17.11;100.00
27429;BME280;14881;48.092;11.574;2023-07-13T02:22:03;95461.88;;;17.19;100.00
27429;BME280;14881;48.092;11.574;2023-07-13T02:24:29;95483.34;;;17.17;100.00
27429;BME280;14881;48.092;11.574;2023-07-13T02:26:56;95469.09;;;17.24;100.00
27429;BME280;14881;48.092;11.574;2023-07-13T02:29:23;95472.47;;;17.29;100.00
27429;BME280;14881;48.092;11.574;2023-07-13T02:31:49;95479.22;;;17.32;100.00
27429;BME280;14881;48.092;11.574;2023-07-13T02:34:16;95475.41;;;17.24;100.00
27429;BME280;14881;48.092;11.574;2023-07-13T02:36:42;95487.06;;;17.21;100.00
27429;BME280;14881;48.092;11.574;2023-07-13T02:39:09;95488.47;;;17.27;100.00
27429;BME280;14881;48.092;11.574;2023-07-13T02:41:37;95497.78;;;17.35;100.00
27429;BME280;14881;48.092;11.574;2023-07-13T02:44:04;95504.75;;;17.32;100.00
27429;BME280;14881;48.092;11.574;2023-07-13T02:46:31;95519.56;;;17.40;100.00
27429;BME280;14881;48.092;11.574;2023-07-13T02:48:58;95522.50;;;17.35;100.00
27429;BME280;14881;48.092;11.574;2023-07-13T02:51:24;95528.31;;;17.33;100.00
27429;BME280;14881;48.092;11.574;2023-07-13T02:53:51;95530.97;;;17.30;100.00
27429;BME280;14881;48.092;11.574;2023-07-13T02:56:18;95526.44;;;17.25;100.00
27429;BME280;14881;48.092;11.574;2023-07-13T02:58:45;95524.44;;;17.34;100.00
27429;BME280;14881;48.092;11.574;2023-07-13T03:01:12;95520.09;;;17.33;100.00
27429;BME280;14881;48.092;11.574;2023-07-13T03:03:39;95522.19;;;17.36;100.00
27429;BME280;14881;48.092;11.574;2023-07-13T03:06:06;95522.59;;;17.18;100.00
27429;BME280;14881;48.092;11.574;2023-07-13T03:08:34;95523.97;;;17.03;100.00
27429;BME280;14881;48.092;11.574;2023-07-13T03:11:01;95532.84;;;17.09;100.00
27429;BME280;14881;48.092;11.574;2023-07-13T03:13:28;95531.41;;;17.02;100.00
27429;BME280;14881;48.092;11.574;2023-07-13T03:15:54;95531.41;;;17.02;100.00
27429;BME280;14881;48.092;11.574;2023-07-13T03:18:21;95547.38;;;17.09;100.00
27429;BME280;14881;48.092;11.574;2023-07-13T03:20:50;95555.28;;;17.11;100.00
27429;BME280;14881;48.092;11.574;2023-07-13T03:23:17;95543.81;;;17.09;100.00
27429;BME280;14881;48.092;11.574;2023-07-13T03:25:43;95538.03;;;17.01;100.00
27429;BME280;14881;48.092;11.574;2023-07-13T03:28:10;95544.69;;;16.92;100.00
27429;BME280;14881;48.092;11.574;2023-07-13T03:30:37;95535.03;;;16.86;100.00
27429;BME280;14881;48.092;11.574;2023-07-13T03:33:03;95537.59;;;16.91;100.00
27429;BME280;14881;48.092;11.574;2023-07-13T03:35:34;95552.47;;;16.81;100.00
27429;BME280;14881;48.092;11.574;2023-07-13T03:38:01;95565.09;;;16.74;100.00
27429;BME280;14881;48.092;11.574;2023-07-13T03:40:28;95570.41;;;16.70;100.00
27429;BME280;14881;48.092;11.574;2023-07-13T03:42:54;95561.38;;;16.69;100.00
27429;BME280;14881;48.092;11.574;2023-07-13T03:45:20;95564.13;;;16.69;100.00
27429;BME280;14881;48.092;11.574;2023-07-13T03:47:47;95558.00;;;16.73;100.00
27429;BME280;14881;48.092;11.574;2023-07-13T03:50:13;95567.84;;;16.74;100.00
27429;BME280;14881;48.092;11.574;2023-07-13T03:52:40;95568.16;;;16.72;100.00
27429;BME280;14881;48.092;11.574;2023-07-13T03:55:08;95559.78;;;16.60;100.00
27429;BME280;14881;48.092;11.574;2023-07-13T03:57:35;95569.63;;;16.52;100.00
27429;BME280;14881;48.092;11.574;2023-07-13T04:00:06;95569.31;;;16.54;100.00
27429;BME280;14881;48.092;11.574;2023-07-13T04:02:33;95567.53;;;16.49;100.00
27429;BME280;14881;48.092;11.574;2023-07-13T04:04:59;95562.88;;;16.41;100.00
27429;BME280;14881;48.092;11.574;2023-07-13T04:07:25;95567.22;;;16.42;100.00
27429;BME280;14881;48.092;11.574;2023-07-13T04:09:52;95563.69;;;16.42;100.00
27429;BME280;14881;48.092;11.574;2023-07-13T04:12:19;95569.66;;;16.44;100.00
27429;BME280;14881;48.092;11.574;2023-07-13T04:14:45;95563.84;;;16.36;100.00
27429;BME280;14881;48.092;11.574;2023-07-13T04:17:12;95559.31;;;16.32;100.00
27429;BME280;14881;48.092;11.574;2023-07-13T04:19:38;95561.09;;;16.28;100.00
27429;BME280;14881;48.092;11.574;2023-07-13T04:22:05;95562.09;;;16.23;100.00
27429;BME280;14881;48.092;11.574;2023-07-13T04:24:31;95568.88;;;16.26;100.00
27429;BME280;14881;48.092;11.574;2023-07-13T04:26:57;95565.97;;;16.22;100.00
27429;BME280;14881;48.092;11.574;2023-07-13T04:29:26;95565.78;;;16.19;100.00
27429;BME280;14881;48.092;11.574;2023-07-13T04:31:52;95569.34;;;16.19;100.00
27429;BME280;14881;48.092;11.574;2023-07-13T04:34:18;95571.13;;;16.24;100.00
27429;BME280;14881;48.092;11.574;2023-07-13T04:36:45;95573.88;;;16.24;100.00
27429;BME280;14881;48.092;11.574;2023-07-13T04:39:11;95576.59;;;16.24;100.00
27429;BME280;14881;48.092;11.574;2023-07-13T04:41:37;95579.16;;;16.29;100.00
27429;BME280;14881;48.092;11.574;2023-07-13T04:44:04;95582.72;;;16.29;100.00
27429;BME280;14881;48.092;11.574;2023-07-13T04:46:31;95582.56;;;16.26;100.00
27429;BME280;14881;48.092;11.574;2023-07-13T04:48:57;95581.59;;;16.30;100.00
27429;BME280;14881;48.092;11.574;2023-07-13T04:51:24;95574.97;;;16.31;100.00
27429;BME280;14881;48.092;11.574;2023-07-13T04:53:51;95578.69;;;16.35;100.00
27429;BME280;14881;48.092;11.574;2023-07-13T04:56:24;95584.66;;;16.38;100.00
27429;BME280;14881;48.092;11.574;2023-07-13T04:58:51;95582.25;;;16.45;100.00
27429;BME280;14881;48.092;11.574;2023-07-13T05:01:17;95588.50;;;16.45;100.00
27429;BME280;14881;48.092;11.574;2023-07-13T05:03:44;95591.25;;;16.45;100.00
27429;BME280;14881;48.092;11.574;2023-07-13T05:06:10;95590.28;;;16.50;100.00
27429;BME280;14881;48.092;11.574;2023-07-13T05:08:37;95601.25;;;16.50;100.00
27429;BME280;14881;48.092;11.574;2023-07-13T05:11:04;95601.44;;;16.45;100.00
27429;BME280;14881;48.092;11.574;2023-07-13T05:13:30;95596.72;;;16.54;100.00
27429;BME280;14881;48.092;11.574;2023-07-13T05:15:58;95599.00;;;16.60;100.00
27429;BME280;14881;48.092;11.574;2023-07-13T05:18:25;95602.38;;;16.66;100.00
27429;BME280;14881;48.092;11.574;2023-07-13T05:20:58;95596.56;;;16.59;100.00
27429;BME280;14881;48.092;11.574;2023-07-13T05:23:24;95585.28;;;16.52;100.00
27429;BME280;14881;48.092;11.574;2023-07-13T05:25:51;95590.75;;;16.60;100.00
27429;BME280;14881;48.092;11.574;2023-07-13T05:28:17;95595.75;;;16.67;100.00
27429;BME280;14881;48.092;11.574;2023-07-13T05:30:45;95605.78;;;16.72;100.00
27429;BME280;14881;48.092;11.574;2023-07-13T05:33:12;95604.81;;;16.67;100.00
27429;BME280;14881;48.092;11.574;2023-07-13T05:35:38;95608.50;;;16.72;100.00
27429;BME280;14881;48.092;11.574;2023-07-13T05:38:05;95615.13;;;16.79;100.00
27429;BME280;14881;48.092;11.574;2023-07-13T05:40:32;95610.41;;;16.80;100.00
27429;BME280;14881;48.092;11.574;2023-07-13T05:42:59;95616.25;;;16.78;100.00
27429;BME280;14881;48.092;11.574;2023-07-13T05:45:25;95616.72;;;16.80;100.00
27429;BME280;14881;48.092;11.574;2023-07-13T05:47:52;95610.56;;;16.83;100.00
27429;BME280;14881;48.092;11.574;2023-07-13T05:50:18;95608.63;;;16.92;100.00
27429;BME280;14881;48.092;11.574;2023-07-13T05:52:44;95608.09;;;16.99;100.00
27429;BME280;14881;48.092;11.574;2023-07-13T05:55:12;95613.41;;;17.13;100.00
27429;BME280;14881;48.092;11.574;2023-07-13T05:57:41;95613.53;;;17.25;100.00
27429;BME280;14881;48.092;11.574;2023-07-13T06:00:09;95604.63;;;17.28;100.00
27429;BME280;14881;48.092;11.574;2023-07-13T06:02:35;95606.19;;;17.37;100.00
27429;BME280;14881;48.092;11.574;2023-07-13T06:05:02;95611.84;;;17.41;100.00
27429;BME280;14881;48.092;11.574;2023-07-13T06:07:29;95615.34;;;17.50;100.00
27429;BME280;14881;48.092;11.574;2023-07-13T06:09:55;95606.16;;;17.46;100.00
27429;BME280;14881;48.092;11.574;2023-07-13T06:12:23;95611.78;;;17.50;100.00
27429;BME280;14881;48.092;11.574;2023-07-13T06:14:49;95618.06;;;17.50;100.00
27429;BME280;14881;48.092;11.574;2023-07-13T06:17:15;95620.03;;;17.50;100.00
27429;BME280;14881;48.092;11.574;2023-07-13T06:19:42;95623.78;;;17.45;100.00
27429;BME280;14881;48.092;11.574;2023-07-13T06:22:08;95638.75;;;17.56;100.00
27429;BME280;14881;48.092;11.574;2023-07-13T06:24:35;95622.38;;;17.68;100.00
27429;BME280;14881;48.092;11.574;2023-07-13T06:27:01;95629.31;;;17.74;100.00
27429;BME280;14881;48.092;11.574;2023-07-13T06:29:28;95629.53;;;17.90;100.00
27429;BME280;14881;48.092;11.574;2023-07-13T06:31:58;95634.44;;;18.05;100.00
27429;BME280;14881;48.092;11.574;2023-07-13T06:34:24;95639.03;;;18.22;100.00
27429;BME280;14881;48.092;11.574;2023-07-13T06:36:51;95648.31;;;18.18;100.00
27429;BME280;14881;48.092;11.574;2023-07-13T06:39:17;95640.38;;;18.16;100.00
27429;BME280;14881;48.092;11.574;2023-07-13T06:41:44;95635.59;;;18.04;100.00
27429;BME280;14881;48.092;11.574;2023-07-13T06:44:10;95644.72;;;17.96;100.00
27429;BME280;14881;48.092;11.574;2023-07-13T06:46:37;95644.91;;;17.91;100.00
27429;BME280;14881;48.092;11.574;2023-07-13T06:49:04;95651.50;;;17.99;100.00
27429;BME280;14881;48.092;11.574;2023-07-13T06:51:30;95655.50;;;18.01;100.00
27429;BME280;14881;48.092;11.574;2023-07-13T06:53:56;95651.00;;;17.97;100.00
27429;BME280;14881;48.092;11.574;2023-07-13T06:56:23;95653.91;;;18.00;100.00
27429;BME280;14881;48.092;11.574;2023-07-13T06:58:49;95653.84;;;18.09;100.00
27429;BME280;14881;48.092;11.574;2023-07-13T07:01:16;95661.56;;;18.16;100.00
27429;BME280;14881;48.092;11.574;2023-07-13T07:03:43;95660.56;;;18.20;100.00
27429;BME280;14881;48.092;11.574;2023-07-13T07:06:19;95653.81;;;18.18;100.00
27429;BME280;14881;48.092;11.574;2023-07-13T07:08:46;95651.91;;;18.30;100.00
27429;BME280;14881;48.092;11.574;2023-07-13T07:11:16;95646.00;;;18.40;100.00
27429;BME280;14881;48.092;11.574;2023-07-13T07:13:42;95646.63;;;18.46;100.00
27429;BME280;14881;48.092;11.574;2023-07-13T07:16:09;95648.84;;;18.53;100.00
27429;BME280;14881;48.092;11.574;2023-07-13T07:18:35;95655.75;;;18.59;100.00
27429;BME280;14881;48.092;11.574;2023-07-13T07:21:03;95657.75;;;18.50;100.00
27429;BME280;14881;48.092;11.574;2023-07-13T07:23:29;95651.84;;;18.39;100.00
27429;BME280;14881;48.092;11.574;2023-07-13T07:25:55;95645.53;;;18.38;100.00
27429;BME280;14881;48.092;11.574;2023-07-13T07:28:22;95657.69;;;18.17;100.00
27429;BME280;14881;48.092;11.574;2023-07-13T07:30:53;95653.81;;;18.18;100.00
27429;BME280;14881;48.092;11.574;2023-07-13T07:33:40;95661.44;;;18.12;100.00
27429;BME280;14881;48.092;11.574;2023-07-13T07:36:07;95674.50;;;17.86;100.00
27429;BME280;14881;48.092;11.574;2023-07-13T07:38:36;95669.94;;;17.60;100.00
27429;BME280;14881;48.092;11.574;2023-07-13T07:41:03;95668.53;;;17.84;100.00
27429;BME280;14881;48.092;11.574;2023-07-13T07:43:33;95674.63;;;17.98;100.00
27429;BME280;14881;48.092;11.574;2023-07-13T07:46:02;95674.16;;;17.96;100.00
27429;BME280;14881;48.092;11.574;2023-07-13T07:48:29;95684.00;;;17.97;100.00
27429;BME280;14881;48.092;11.574;2023-07-13T07:50:55;95681.41;;;18.00;100.00
27429;BME280;14881;48.092;11.574;2023-07-13T07:53:23;95678.84;;;17.95;100.00
27429;BME280;14881;48.092;11.574;2023-07-13T07:55:49;95686.84;;;17.80;100.00
27429;BME280;14881;48.092;11.574;2023-07-13T07:58:19;95694.94;;;17.76;100.00
27429;BME280;14881;48.092;11.574;2023-07-13T08:00:49;95699.97;;;17.74;100.00
27429;BME280;14881;48.092;11.574;2023-07-13T08:03:18;95699.19;;;17.56;100.00
27429;BME280;14881;48.092;11.574;2023-07-13T08:05:47;95713.31;;;17.46;100.00
27429;BME280;14881;48.092;11.574;2023-07-13T08:08:35;95715.91;;;17.43;100.00
27429;BME280;14881;48.092;11.574;2023-07-13T08:11:02;95719.97;;;17.28;100.00
27429;BME280;14881;48.092;11.574;2023-07-13T08:13:40;95727.91;;;17.29;100.00
27429;BME280;14881;48.092;11.574;2023-07-13T08:16:07;95723.69;;;17.23;100.00
27429;BME280;14881;48.092;11.574;2023-07-13T08:18:33;95725.81;;;17.18;100.00
27429;BME280;14881;48.092;11.574;2023-07-13T08:21:03;95717.59;;;17.09;100.00
27429;BME280;14881;48.092;11.574;2023-07-13T08:23:31;95730.03;;;17.07;100.00
27429;BME280;14881;48.092;11.574;2023-07-13T08:26:00;95725.50;;;17.02;100.00
27429;BME280;14881;48.092;11.574;2023-07-13T08:28:27;95727.75;;;17.00;100.00
27429;BME280;14881;48.092;11.574;2023-07-13T08:30:54;95735.22;;;16.91;100.00
27429;BME280;14881;48.092;11.574;2023-07-13T08:33:21;95732.31;;;16.96;100.00
27429;BME280;14881;48.092;11.574;2023-07-13T08:35:50;95738.25;;;16.98;100.00
27429;BME280;14881;48.092;11.574;2023-07-13T08:38:17;95733.44;;;16.95;100.00
27429;BME280;14881;48.092;11.574;2023-07-13T08:40:54;95743.13;;;16.92;100.00
27429;BME280;14881;48.092;11.574;2023-07-13T08:43:26;95741.84;;;16.90;100.00
27429;BME280;14881;48.092;11.574;2023-07-13T08:45:57;95742.31;;;16.92;100.00
27429;BME280;14881;48.092;11.574;2023-07-13T08:48:27;95746.50;;;16.98;100.00
27429;BME280;14881;48.092;11.574;2023-07-13T08:50:57;95743.44;;;17.08;100.00
27429;BME280;14881;48.092;11.574;2023-07-13T08:53:33;95756.53;;;17.11;100.00
27429;BME280;14881;48.092;11.574;2023-07-13T08:56:07;95756.66;;;17.15;100.00
27429;BME280;14881;48.092;11.574;2023-07-13T08:58:36;95753.44;;;17.21;100.00
27429;BME280;14881;48.092;11.574;2023-07-13T09:01:19;95754.22;;;17.30;100.00
27429;BME280;14881;48.092;11.574;2023-07-13T09:03:51;95750.47;;;17.35;100.00
27429;BME280;14881;48.092;11.574;2023-07-13T09:06:23;95744.66;;;17.45;100.00
27429;BME280;14881;48.092;11.574;2023-07-13T09:08:57;95733.97;;;17.52;100.00
27429;BME280;14881;48.092;11.574;2023-07-13T09:11:40;95731.41;;;17.47;100.00
27429;BME280;14881;48.092;11.574;2023-07-13T09:14:18;95716.53;;;17.48;100.00
27429;BME280;14881;48.092;11.574;2023-07-13T09:16:49;95726.53;;;17.53;100.00
27429;BME280;14881;48.092;11.574;2023-07-13T09:19:20;95725.69;;;17.61;100.00
27429;BME280;14881;48.092;11.574;2023-07-13T09:21:48;95735.78;;;17.86;100.00
27429;BME280;14881;48.092;11.574;2023-07-13T09:24:28;95724.44;;;17.96;100.00
27429;BME280;14881;48.092;11.574;2023-07-13T09:26:55;95723.66;;;17.96;100.00
27429;BME280;14881;48.092;11.574;2023-07-13T09:29:28;95728.66;;;17.94;100.00
27429;BME280;14881;48.092;11.574;2023-07-13T09:31:57;95730.59;;;17.93;100.00
27429;BME280;14881;48.092;11.574;2023-07-13T09:34:27;95723.34;;;17.89;100.00
27429;BME280;14881;48.092;11.574;2023-07-13T09:36:56;95718.31;;;17.91;100.00
27429;BME280;14881;48.092;11.574;2023-07-13T09:39:26;95726.25;;;17.92;100.00
27429;BME280;14881;48.092;11.574;2023-07-13T09:41:59;95728.09;;;17.80;100.00
27429;BME280;14881;48.092;11.574;2023-07-13T09:44:30;95737.78;;;17.77;100.00
27429;BME280;14881;48.092;11.574;2023-07-13T09:46:57;95725.84;;;17.73;100.00
27429;BME280;14881;48.092;11.574;2023-07-13T09:49:24;95733.75;;;17.74;100.00
27429;BME280;14881;48.092;11.574;2023-07-13T09:51:58;95731.84;;;18.04;100.00
27429;BME280;14881;48.092;11.574;2023-07-13T09:54:25;95733.19;;;18.19;100.00
27429;BME280;14881;48.092;11.574;2023-07-13T09:56:54;95726.94;;;18.39;100.00
27429;BME280;14881;48.092;11.574;2023-07-13T09:59:24;95720.72;;;18.51;100.00
27429;BME280;14881;48.092;11.574;2023-07-13T10:01:51;95714.66;;;18.58;100.00
27429;BME280;14881;48.092;11.574;2023-07-13T10:04:20;95699.41;;;18.69;100.00
27429;BME280;14881;48.092;11.574;2023-07-13T10:06:46;95699.28;;;18.65;100.00
27429;BME280;14881;48.092;11.574;2023-07-13T10:09:15;95709.72;;;18.72;100.00
27429;BME280;14881;48.092;11.574;2023-07-13T10:11:42;95718.66;;;18.90;100.00
27429;BME280;14881;48.092;11.574;2023-07-13T10:14:13;95711.66;;;19.25;100.00
27429;BME280;14881;48.092;11.574;2023-07-13T10:16:41;95718.13;;;19.29;100.00
27429;BME280;14881;48.092;11.574;2023-07-13T10:19:13;95717.97;;;19.59;100.00
27429;BME280;14881;48.092;11.574;2023-07-13T10:21:47;95704.13;;;19.79;100.00
27429;BME280;14881;48.092;11.574;2023-07-13T10:24:20;95701.81;;;20.30;100.00
27429;BME280;14881;48.092;11.574;2023-07-13T10:26:50;95698.91;;;20.63;100.00
27429;BME280;14881;48.092;11.574;2023-07-13T10:29:20;95703.66;;;20.91;100.00
27429;BME280;14881;48.092;11.574;2023-07-13T10:31:48;95697.31;;;21.18;100.00
27429;BME280;14881;48.092;11.574;2023-07-13T10:34:16;95690.69;;;21.35;100.00
27429;BME280;14881;48.092;11.574;2023-07-13T10:36:44;95694.09;;;21.28;100.00
27429;BME280;14881;48.092;11.574;2023-07-13T10:39:16;95699.28;;;21.17;100.00
27429;BME280;14881;48.092;11.574;2023-07-13T10:41:44;95695.06;;;21.36;100.00
27429;BME280;14881;48.092;11.574;2023-07-13T10:44:20;95691.13;;;21.96;100.00
27429;BME280;14881;48.092;11.574;2023-07-13T10:46:48;95681.75;;;22.86;100.00
27429;BME280;14881;48.092;11.574;2023-07-13T10:49:16;95679.91;;;23.52;100.00
27429;BME280;14881;48.092;11.574;2023-07-13T10:51:43;95671.81;;;24.12;100.00
27429;BME280;14881;48.092;11.574;2023-07-13T10:54:15;95676.25;;;24.16;100.00
27429;BME280;14881;48.092;11.574;2023-07-13T10:56:46;95675.66;;;23.58;100.00
27429;BME280;14881;48.092;11.574;2023-07-13T10:59:18;95679.38;;;23.66;100.00
27429;BME280;14881;48.092;11.574;2023-07-13T11:01:55;95691.59;;;23.84;100.00
27429;BME280;14881;48.092;11.574;2023-07-13T11:04:24;95685.91;;;23.77;100.00
27429;BME280;14881;48.092;11.574;2023-07-13T11:06:56;95682.66;;;23.71;100.00
27429;BME280;14881;48.092;11.574;2023-07-13T11:09:37;95691.03;;;23.98;100.00
27429;BME280;14881;48.092;11.574;2023-07-13T11:12:10;95685.31;;;24.13;100.00
27429;BME280;14881;48.092;11.574;2023-07-13T11:15:02;95682.66;;;24.20;100.00
27429;BME280;14881;48.092;11.574;2023-07-13T11:17:49;95678.47;;;24.30;100.00
27429;BME280;14881;48.092;11.574;2023-07-13T11:20:38;95691.59;;;24.07;100.00
27429;BME280;14881;48.092;11.574;2023-07-13T11:23:17;95689.78;;;24.18;100.00
27429;BME280;14881;48.092;11.574;2023-07-13T11:25:45;95689.38;;;24.42;100.00
27429;BME280;14881;48.092;11.574;2023-07-13T11:28:21;95684.03;;;24.56;100.00
27429;BME280;14881;48.092;11.574;2023-07-13T11:30:59;95685.84;;;24.45;100.00
27429;BME280;14881;48.092;11.574;2023-07-13T11:33:29;95684.81;;;24.08;97.82
27429;BME280;14881;48.092;11.574;2023-07-13T11:36:06;95684.00;;;23.81;100.00
27429;BME280;14881;48.092;11.574;2023-07-13T11:38:35;95684.06;;;23.84;100.00
27429;BME280;14881;48.092;11.574;2023-07-13T11:41:05;95674.44;;;23.78;100.00
27429;BME280;14881;48.092;11.574;2023-07-13T11:43:32;95661.31;;;23.52;100.00
27429;BME280;14881;48.092;11.574;2023-07-13T11:46:12;95659.19;;;23.26;100.00
27429;BME280;14881;48.092;11.574;2023-07-13T11:48:39;95653.72;;;23.72;100.00
27429;BME280;14881;48.092;11.574;2023-07-13T11:51:19;95653.91;;;24.32;87.40
27429;BME280;14881;48.092;11.574;2023-07-13T11:53:49;95649.91;;;24.56;100.00
27429;BME280;14881;48.092;11.574;2023-07-13T11:56:17;95647.63;;;24.95;91.75
27429;BME280;14881;48.092;11.574;2023-07-13T11:58:43;95645.81;;;24.80;97.63
27429;BME280;14881;48.092;11.574;2023-07-13T12:01:20;95645.84;;;25.10;100.00
27429;BME280;14881;48.092;11.574;2023-07-13T12:03:48;95641.78;;;25.37;89.16
27429;BME280;14881;48.092;11.574;2023-07-13T12:06:28;95643.88;;;25.10;93.33
27429;BME280;14881;48.092;11.574;2023-07-13T12:08:58;95636.09;;;25.26;98.03
27429;BME280;14881;48.092;11.574;2023-07-13T12:11:26;95637.72;;;25.31;94.59
27429;BME280;14881;48.092;11.574;2023-07-13T12:13:53;95638.03;;;25.59;88.48
27429;BME280;14881;48.092;11.574;2023-07-13T12:16:26;95631.31;;;25.64;85.19
27429;BME280;14881;48.092;11.574;2023-07-13T12:18:54;95634.69;;;26.35;89.92
27429;BME280;14881;48.092;11.574;2023-07-13T12:21:31;95633.59;;;26.50;92.79
27429;BME280;14881;48.092;11.574;2023-07-13T12:23:58;95637.06;;;26.29;85.10
27429;BME280;14881;48.092;11.574;2023-07-13T12:26:28;95632.28;;;25.79;89.71
27429;BME280;14881;48.092;11.574;2023-07-13T12:28:58;95635.91;;;25.49;89.13
27429;BME280;14881;48.092;11.574;2023-07-13T12:31:32;95630.56;;;25.30;85.58
27429;BME280;14881;48.092;11.574;2023-07-13T12:34:02;95624.13;;;25.22;88.39
27429;BME280;14881;48.092;11.574;2023-07-13T12:36:34;95622.22;;;24.67;90.78
27429;BME280;14881;48.092;11.574;2023-07-13T12:39:06;95630.34;;;24.49;94.07
27429;BME280;14881;48.092;11.574;2023-07-13T12:41:38;95634.16;;;24.37;98.91
27429;BME280;14881;48.092;11.574;2023-07-13T12:44:07;95622.69;;;24.42;100.00
27429;BME280;14881;48.092;11.574;2023-07-13T12:46:34;95614.53;;;24.53;98.71
27429;BME280;14881;48.092;11.574;2023-07-13T12:49:05;95615.03;;;24.62;100.00